PWSweather.com
Personal Weather Stations
Station Observations
WISCHPK61
Green Bay Schmitt Park, Green Bay, WI 54311

Green Bay Schmitt ParkGreen Bay, WI 54311

Lat: 44.514277, Lon: -87.935067

Elevation: 735

Station Type: Acu Rite Pro Weather Center model 02032C

http://greenbayweathercam.com

High Low Average
Temperature 37.8°F3.2°C 4.3°F-15.4°C 17.4°F-8.1°C
Dew Point 37.5°F3.1°C 4.1°F-15.5°C 16.0°F-8.9°C
Winds 1.2 mph 1.9 kmh Calm Calm Calm SCalm S
Wind Gusts 1.2 mph1.9 kmh -- --
Humidity 99% 70% 95%
Pressure 29.88 in1011.9 mb 29.66 in1004.4 mb -
Precipitation 0.00 in0.0 mm - -
Hour Temp Dew Point Humidity Winds Wind Gusts Pressure Precip Precip Rate Daily Precip Total
12:00 AM 10.2°F-12.1°C 10.0°F-12.2°C 99% Calm Calm -- 29.80 in1009.1 mb - 0.00 in0.0 mm 0.00 in0.0 mm
01:00 AM 10.8°F-11.8°C 10.6°F-11.9°C 99% Calm Calm -- 29.81 in1009.5 mb - 0.00 in0.0 mm 0.00 in0.0 mm
02:00 AM 9.0°F-12.8°C 8.8°F-12.9°C 99% Calm Calm -- 29.82 in1009.8 mb - 0.00 in0.0 mm 0.00 in0.0 mm
03:00 AM 7.3°F-13.7°C 7.1°F-13.8°C 99% Calm Calm -- 29.82 in1009.8 mb - 0.00 in0.0 mm 0.00 in0.0 mm
04:00 AM 7.2°F-13.8°C 7.0°F-13.9°C 99% Calm Calm -- 29.82 in1009.8 mb - 0.00 in0.0 mm 0.00 in0.0 mm
05:00 AM 5.9°F-14.5°C 5.7°F-14.6°C 99% Calm Calm -- 29.83 in1010.2 mb - 0.00 in0.0 mm 0.00 in0.0 mm
06:00 AM 4.6°F-15.2°C 4.4°F-15.3°C 99% Calm Calm -- 29.85 in1010.8 mb - 0.00 in0.0 mm 0.00 in0.0 mm
07:00 AM 4.3°F-15.4°C 4.1°F-15.5°C 99% Calm Calm -- 29.84 in1010.5 mb - 0.00 in0.0 mm 0.00 in0.0 mm
08:00 AM 8.4°F-13.1°C 8.2°F-13.2°C 99% Calm Calm -- 29.87 in1011.5 mb - 0.00 in0.0 mm 0.00 in0.0 mm
09:00 AM 15.4°F-9.2°C 10.0°F-12.2°C 79% Calm Calm -- 29.88 in1011.9 mb - 0.00 in0.0 mm 0.00 in0.0 mm
10:00 AM 21.5°F-5.8°C 15.4°F-9.2°C 77% Calm Calm -- 29.88 in1011.9 mb - 0.00 in0.0 mm 0.00 in0.0 mm
11:00 AM 27.1°F-2.7°C 26.8°F-2.9°C 99% Calm Calm -- 29.88 in1011.9 mb - 0.00 in0.0 mm 0.00 in0.0 mm
12:00 PM 31.9°F-0.1°C 31.7°F-0.2°C 99% 1.2 mph SE1.9 kmh SE 1.2 mph1.9 kmh 29.86 in1011.2 mb - 0.00 in0.0 mm 0.00 in0.0 mm
01:00 PM 37.8°F3.2°C 37.5°F3.1°C 99% Calm Calm -- 29.82 in1009.8 mb - 0.00 in0.0 mm 0.00 in0.0 mm
02:00 PM 34.1°F1.2°C 33.8°F1.0°C 99% Calm Calm -- 29.80 in1009.1 mb - 0.00 in0.0 mm 0.00 in0.0 mm
03:00 PM 30.7°F-0.7°C 23.7°F-4.6°C 75% Calm Calm -- 29.76 in1007.8 mb - 0.00 in0.0 mm 0.00 in0.0 mm
04:00 PM 27.2°F-2.7°C 26.9°F-2.8°C 99% Calm Calm -- 29.75 in1007.5 mb - 0.00 in0.0 mm 0.00 in0.0 mm
05:00 PM 23.7°F-4.6°C 15.3°F-9.3°C 70% Calm Calm -- 29.73 in1006.8 mb - 0.00 in0.0 mm 0.00 in0.0 mm
06:00 PM 20.3°F-6.5°C 20.1°F-6.6°C 99% Calm Calm -- 29.75 in1007.5 mb - 0.00 in0.0 mm 0.00 in0.0 mm
07:00 PM 18.1°F-7.7°C 17.9°F-7.8°C 99% Calm Calm -- 29.74 in1007.1 mb - 0.00 in0.0 mm 0.00 in0.0 mm
08:00 PM 16.5°F-8.6°C 16.3°F-8.7°C 99% Calm Calm -- 29.74 in1007.1 mb - 0.00 in0.0 mm 0.00 in0.0 mm
09:00 PM 15.4°F-9.2°C 15.2°F-9.3°C 99% Calm Calm -- 29.71 in1006.1 mb - 0.00 in0.0 mm 0.00 in0.0 mm
10:00 PM 14.9°F-9.5°C 14.7°F-9.6°C 99% Calm Calm -- 29.69 in1005.4 mb - 0.00 in0.0 mm 0.00 in0.0 mm
11:00 PM 14.2°F-9.9°C 14.0°F-10.0°C 99% Calm Calm -- 29.66 in1004.4 mb - 0.00 in0.0 mm 0.00 in0.0 mm